Time;durP1;ratioP1;P1;durP2;ratioP2;P2;SDS_P1;SDS_P2;PMS_P1;PMS_P2;Temp;Humidity;BMP_temperature;BMP_pressure;BME280_temperature;BME280_humidity;BME280_pressure;Samples;Min_cycle;Max_cycle;Signal;HPM_P1;HPM_P2
2023/11/11 00:01:06;;;;;;;0.40;0.40;;;;;;;-145.69;59.46;52248.34;5125368;28;20220;-83
2023/11/11 00:03:34;;;;;;;0.50;0.50;;;;;;;-145.69;59.25;52246.34;5123409;28;20666;-84
2023/11/11 00:06:01;;;;;;;0.43;0.43;;;;;;;-145.69;59.24;52283.97;5124732;28;20217;-83
2023/11/11 00:08:27;;;;;;;0.40;0.40;;;;;;;-145.69;59.11;52264.16;5124174;28;20201;-83
2023/11/11 00:10:54;;;;;;;0.50;0.50;;;;;;;-145.69;59.26;52268.13;5123186;28;20275;-83
2023/11/11 00:13:21;;;;;;;0.63;0.50;;;;;;;-145.69;59.44;52291.91;5120070;28;20201;-83
2023/11/11 00:15:50;;;;;;;0.37;0.37;;;;;;;-145.69;59.57;52274.06;5121254;28;20208;-83
2023/11/11 00:18:18;;;;;;;0.43;0.43;;;;;;;-145.69;59.06;52262.19;5121686;28;20275;-83
2023/11/11 00:20:47;;;;;;;1.30;0.40;;;;;;;-145.69;59.40;52285.97;5121682;28;20205;-83
2023/11/11 00:23:17;;;;;;;0.40;0.40;;;;;;;-145.69;59.27;52246.34;5122906;28;20193;-84
2023/11/11 00:25:43;;;;;;;0.70;0.40;;;;;;;-145.69;59.18;52266.16;5123153;28;20205;-84
2023/11/11 00:28:10;;;;;;;0.50;0.50;;;;;;;-145.69;58.86;52246.34;5118323;28;20728;-83
2023/11/11 00:30:38;;;;;;;0.60;0.60;;;;;;;-145.69;59.18;52264.16;5120703;28;20236;-84
2023/11/11 00:33:06;;;;;;;0.43;0.43;;;;;;;-145.69;59.77;52222.59;5120384;28;20205;-84
2023/11/11 00:35:32;;;;;;;1.27;0.50;;;;;;;-145.69;60.18;52270.13;5119924;28;20194;-83
2023/11/11 00:38:00;;;;;;;0.93;0.50;;;;;;;-145.69;60.26;52270.13;5120322;28;20288;-84
2023/11/11 00:40:27;;;;;;;0.30;0.30;;;;;;;-145.69;60.80;52260.22;5120978;28;20443;-84
2023/11/11 00:42:53;;;;;;;0.40;0.40;;;;;;;-145.69;60.05;52262.19;5125239;28;20212;-84
2023/11/11 00:45:22;;;;;;;0.40;0.40;;;;;;;-145.69;60.26;52270.13;5124752;28;20230;-84
2023/11/11 00:47:51;;;;;;;0.40;0.40;;;;;;;-145.69;60.34;52276.06;5125597;28;20213;-84
2023/11/11 00:50:19;;;;;;;1.77;0.60;;;;;;;-145.69;60.80;52220.59;5119868;27;20225;-83
2023/11/11 00:52:45;;;;;;;0.90;0.40;;;;;;;-145.69;60.94;52258.22;5117539;28;20207;-83
2023/11/11 00:55:12;;;;;;;0.40;0.40;;;;;;;-145.69;62.01;52278.03;5117178;28;20209;-82
2023/11/11 00:57:39;;;;;;;0.47;0.43;;;;;;;-145.69;62.26;52244.38;5115788;28;20201;-83
2023/11/11 01:00:10;;;;;;;0.80;0.50;;;;;;;-145.69;62.76;52240.41;5118210;28;20215;-83
2023/11/11 01:02:36;;;;;;;0.43;0.40;;;;;;;-145.69;63.69;52276.06;5117753;28;20198;-83
2023/11/11 01:05:03;;;;;;;9.00;0.63;;;;;;;-145.69;64.44;52270.13;5115375;28;20201;-83
2023/11/11 01:07:31;;;;;;;0.67;0.50;;;;;;;-145.69;68.45;52246.34;5114361;28;20233;-83
2023/11/11 01:09:58;;;;;;;9.10;0.60;;;;;;;-145.69;94.87;52282.00;5116592;28;20229;-83
2023/11/11 01:12:25;;;;;;;6.07;0.63;;;;;;;-145.69;100.00;52266.16;5117138;28;20193;-84
2023/11/11 01:14:51;;;;;;;0.50;0.50;;;;;;;-145.69;100.00;52287.94;5116197;27;20556;-83
2023/11/11 01:17:18;;;;;;;0.50;0.50;;;;;;;-145.69;100.00;52270.13;5119969;28;20257;-82
2023/11/11 01:19:45;;;;;;;0.87;0.50;;;;;;;-145.69;100.00;52280.00;5112052;28;20201;-83
2023/11/11 01:22:15;;;;;;;0.73;0.60;;;;;;;-145.69;100.00;52299.81;5122659;28;20220;-83
2023/11/11 01:24:43;;;;;;;0.43;0.43;;;;;;;-145.69;98.77;52285.97;5122578;28;20253;-84
2023/11/11 01:27:11;;;;;;;0.47;0.47;;;;;;;-145.69;89.91;52280.00;5118972;28;20244;-83
2023/11/11 01:29:38;;;;;;;0.50;0.40;;;;;;;-145.69;83.08;52285.97;5120652;28;20284;-83
2023/11/11 01:32:05;;;;;;;0.57;0.57;;;;;;;-145.69;78.03;52309.72;5122288;28;20190;-83
2023/11/11 01:34:31;;;;;;;0.53;0.50;;;;;;;-145.69;76.85;52295.84;5123272;28;20194;-83
2023/11/11 01:36:58;;;;;;;0.53;0.53;;;;;;;-145.69;76.13;52321.59;5122071;28;20663;-83
2023/11/11 01:39:24;;;;;;;0.83;0.77;;;;;;;-145.69;76.63;52303.78;5119142;28;20197;-83
2023/11/11 01:41:52;;;;;;;0.80;0.80;;;;;;;-145.69;76.27;52254.28;5120877;28;20198;-83
2023/11/11 01:44:19;;;;;;;0.70;0.70;;;;;;;-145.69;77.00;52293.88;5117152;28;20288;-82
2023/11/11 01:46:46;;;;;;;2.20;0.90;;;;;;;-145.69;76.68;52325.56;5118471;28;20204;-82
2023/11/11 01:49:13;;;;;;;3.17;0.90;;;;;;;-145.69;76.14;52270.13;5118781;28;20678;-82
2023/11/11 01:51:39;;;;;;;5.73;1.00;;;;;;;-145.69;75.83;52270.13;5122204;28;20228;-83
2023/11/11 01:54:06;;;;;;;1.17;0.93;;;;;;;-145.69;75.77;52252.28;5121375;28;20197;-82
2023/11/11 01:56:33;;;;;;;1.80;1.10;;;;;;;-145.69;75.42;52278.03;5123060;28;20201;-83
2023/11/11 01:59:02;;;;;;;1.80;1.07;;;;;;;-145.69;76.37;52291.91;5124737;28;20236;-83
2023/11/11 02:01:28;;;;;;;1.10;0.90;;;;;;;-145.69;75.62;52301.81;5121945;28;20204;-82
2023/11/11 02:03:55;;;;;;;5.97;1.03;;;;;;;-145.69;75.78;52293.88;5119816;28;20632;-83
2023/11/11 02:06:22;;;;;;;3.23;1.10;;;;;;;-145.69;75.67;52282.00;5120788;28;20232;-83
2023/11/11 02:08:50;;;;;;;1.30;1.20;;;;;;;-145.69;75.77;52291.91;5119584;28;20198;-83
2023/11/11 02:11:17;;;;;;;6.07;1.07;;;;;;;-145.69;76.12;52272.09;5119439;28;20245;-83
2023/11/11 02:13:43;;;;;;;2.17;1.33;;;;;;;-145.69;75.66;52293.88;5120189;28;20205;-83
2023/11/11 02:16:13;;;;;;;5.57;1.13;;;;;;;-145.69;75.91;52303.78;5120866;28;20202;-83
2023/11/11 02:18:41;;;;;;;1.70;1.10;;;;;;;-145.69;75.87;52297.84;5120778;27;20221;-84
2023/11/11 02:21:08;;;;;;;2.88;1.40;;;;;;;-145.69;77.31;52325.56;5117802;28;20427;-84
2023/11/11 02:23:37;;;;;;;7.47;1.27;;;;;;;-145.69;76.29;52289.91;5118421;28;20193;-83
2023/11/11 02:26:05;;;;;;;2.53;1.10;;;;;;;-145.69;75.12;52293.88;5115131;28;20213;-82
2023/11/11 02:28:32;;;;;;;1.20;0.90;;;;;;;-145.69;75.12;52266.16;5114776;28;20808;-82
2023/11/11 02:30:59;;;;;;;3.50;1.10;;;;;;;-145.69;75.04;52258.22;5114696;28;20282;-84
2023/11/11 02:33:26;;;;;;;6.13;1.20;;;;;;;-145.69;75.47;52299.81;5114951;28;20659;-83
2023/11/11 02:35:53;;;;;;;2.23;1.10;;;;;;;-145.69;75.35;52325.56;5115488;28;20254;-82
2023/11/11 02:38:20;;;;;;;3.70;1.00;;;;;;;-145.69;74.78;52276.06;5115392;28;20197;-82
2023/11/11 02:40:48;;;;;;;2.77;1.30;;;;;;;-145.69;74.76;52295.84;5114641;28;20202;-83
2023/11/11 02:43:15;;;;;;;1.10;1.00;;;;;;;-145.69;74.90;52303.78;5114763;28;20205;-84
2023/11/11 02:45:42;;;;;;;3.03;1.20;;;;;;;-145.69;74.91;52287.94;5114970;28;20262;-82
2023/11/11 02:48:08;;;;;;;2.93;1.37;;;;;;;-145.69;74.87;52297.84;5116120;28;20204;-82
2023/11/11 02:50:38;;;;;;;3.50;1.10;;;;;;;-145.69;75.16;52262.19;5115786;28;20319;-82
2023/11/11 02:53:05;;;;;;;1.80;1.07;;;;;;;-145.69;75.17;52266.16;5115113;28;20198;-83
2023/11/11 02:55:31;;;;;;;3.17;1.30;;;;;;;-145.69;75.42;52262.19;5114070;28;20279;-84
2023/11/11 02:57:59;;;;;;;3.10;1.10;;;;;;;-145.69;75.99;52258.22;5116065;28;20204;-84
2023/11/11 03:00:27;;;;;;;2.53;1.40;;;;;;;-145.69;74.97;52285.97;5113267;28;20671;-85
2023/11/11 03:02:54;;;;;;;1.53;1.10;;;;;;;-145.69;75.36;52287.94;5115206;28;20292;-84
2023/11/11 03:05:21;;;;;;;5.07;1.50;;;;;;;-145.69;75.75;52315.66;5115461;28;20205;-84
2023/11/11 03:07:47;;;;;;;4.30;1.60;;;;;;;-145.69;75.78;52278.03;5115389;28;20297;-83
2023/11/11 03:10:14;;;;;;;5.13;1.70;;;;;;;-145.69;75.28;52287.94;5114705;28;20731;-82
2023/11/11 03:12:41;;;;;;;2.40;1.80;;;;;;;-145.69;75.36;52323.59;5114424;28;20212;-82
2023/11/11 03:15:10;;;;;;;2.23;1.27;;;;;;;-145.69;75.28;52305.75;5115967;28;20208;-84
2023/11/11 03:17:36;;;;;;;6.37;1.70;;;;;;;-145.69;75.84;52285.97;5114049;28;20327;-83
2023/11/11 03:20:05;;;;;;;3.03;1.50;;;;;;;-145.69;76.30;52283.97;5114104;28;20216;-83
2023/11/11 03:22:32;;;;;;;3.17;1.70;;;;;;;-145.69;75.87;52289.91;5114614;28;20284;-83
2023/11/11 03:24:59;;;;;;;6.93;1.80;;;;;;;-145.69;75.52;52307.75;5114628;28;20281;-81
2023/11/11 03:27:25;;;;;;;3.80;2.13;;;;;;;-145.69;75.32;52278.03;5109515;28;20212;-82
2023/11/11 03:29:52;;;;;;;5.07;2.03;;;;;;;-145.69;75.22;52285.97;5113522;28;20675;-82
2023/11/11 03:32:20;;;;;;;4.80;2.47;;;;;;;-145.69;75.60;52291.91;5117715;28;20232;-82
2023/11/11 03:34:46;;;;;;;6.13;2.00;;;;;;;-145.69;75.77;52331.50;5117939;28;20678;-81
2023/11/11 03:37:13;;;;;;;4.90;2.00;;;;;;;-145.69;75.84;52303.78;5117729;28;20201;-82
2023/11/11 03:39:40;;;;;;;4.93;2.50;;;;;;;-145.69;75.02;52283.97;5117428;28;20205;-82
2023/11/11 03:42:07;;;;;;;4.83;2.30;;;;;;;-145.69;75.40;52309.72;5117828;28;20285;-82
2023/11/11 03:44:33;;;;;;;5.93;2.10;;;;;;;-145.69;75.57;52246.34;5117250;28;20315;-81
2023/11/11 03:47:00;;;;;;;4.83;2.17;;;;;;;-145.69;74.78;52329.53;5117268;28;20201;-83
2023/11/11 03:49:28;;;;;;;8.57;2.30;;;;;;;-145.69;74.91;52270.13;5118460;28;20197;-83
2023/11/11 03:51:54;;;;;;;6.27;2.10;;;;;;;-145.69;74.54;52278.03;5117162;28;20320;-82
2023/11/11 03:54:21;;;;;;;7.63;2.60;;;;;;;-145.69;74.34;52299.81;5117195;28;20206;-82
2023/11/11 03:56:50;;;;;;;5.27;2.30;;;;;;;-145.69;74.89;52295.84;5118436;28;20555;-83
2023/11/11 03:59:17;;;;;;;5.67;2.47;;;;;;;-145.69;74.79;52270.13;5117624;28;20212;-83
2023/11/11 04:01:43;;;;;;;10.07;2.63;;;;;;;-145.69;74.49;52339.44;5119490;28;20205;-82
2023/11/11 04:04:10;;;;;;;5.60;2.83;;;;;;;-145.69;74.96;52295.84;5118019;28;20205;-83
2023/11/11 04:06:39;;;;;;;4.90;2.57;;;;;;;-145.69;74.64;52266.16;5117016;28;20236;-82
2023/11/11 04:09:06;;;;;;;6.90;2.60;;;;;;;-145.69;74.30;52321.59;5119664;28;20424;-82
2023/11/11 04:11:33;;;;;;;7.20;2.63;;;;;;;-145.69;74.36;52309.72;5116463;28;20312;-81
2023/11/11 04:14:02;;;;;;;10.37;2.50;;;;;;;-145.69;74.02;52293.88;5116702;28;20225;-81
2023/11/11 04:16:29;;;;;;;6.90;2.77;;;;;;;-145.69;74.29;52282.00;5115790;28;20281;-82
2023/11/11 04:18:56;;;;;;;2.53;2.07;;;;;;;-145.69;73.55;52278.03;5116452;28;20247;-81
2023/11/11 04:21:22;;;;;;;5.17;2.50;;;;;;;-145.69;73.65;52289.91;5116105;28;20209;-82
2023/11/11 04:23:50;;;;;;;6.03;2.53;;;;;;;-145.69;73.28;52266.16;5116085;28;20196;-81
2023/11/11 04:26:17;;;;;;;7.30;2.60;;;;;;;-145.69;73.70;52276.06;5116133;28;20202;-82
2023/11/11 04:28:43;;;;;;;7.77;2.70;;;;;;;-145.69;73.35;52313.69;5115726;28;20809;-82
2023/11/11 04:31:12;;;;;;;4.83;2.20;;;;;;;-145.69;74.09;52325.56;5116492;28;20304;-82
2023/11/11 04:33:39;;;;;;;4.63;2.43;;;;;;;-145.69;73.57;52297.84;5116224;28;20280;-82
2023/11/11 04:36:06;;;;;;;9.87;2.50;;;;;;;-145.69;73.53;52317.66;5116208;28;20197;-82
2023/11/11 04:38:34;;;;;;;5.87;2.40;;;;;;;-145.69;73.39;52293.88;5115734;28;20206;-81
2023/11/11 04:41:05;;;;;;;7.10;2.50;;;;;;;-145.69;73.38;52305.75;5114534;28;20194;-82
2023/11/11 04:43:32;;;;;;;9.03;2.33;;;;;;;-145.69;73.24;52293.88;5115951;28;20656;-82
2023/11/11 04:45:58;;;;;;;6.93;2.70;;;;;;;-145.69;73.68;52299.81;5115751;28;20197;-81
2023/11/11 04:48:25;;;;;;;8.67;2.33;;;;;;;-145.69;73.46;52315.66;5115027;28;20202;-81
2023/11/11 04:50:51;;;;;;;4.60;2.50;;;;;;;-145.69;73.62;52289.91;5114411;28;20587;-82
2023/11/11 04:53:19;;;;;;;9.07;2.73;;;;;;;-145.69;73.38;52282.00;5115334;28;20652;-82
2023/11/11 04:55:47;;;;;;;4.83;2.50;;;;;;;-145.69;73.25;52301.81;5115463;28;20667;-80
2023/11/11 04:58:16;;;;;;;4.83;2.30;;;;;;;-145.69;73.51;52283.97;5115010;28;20238;-81
2023/11/11 05:00:42;;;;;;;15.37;2.87;;;;;;;-145.69;73.26;52289.91;5114961;28;20223;-82
2023/11/11 05:03:09;;;;;;;3.30;2.00;;;;;;;-145.69;73.42;52293.88;5116001;28;20232;-82
2023/11/11 05:05:35;;;;;;;7.70;2.17;;;;;;;-145.69;73.35;52303.78;5116101;28;20231;-83
2023/11/11 05:08:04;;;;;;;5.17;2.20;;;;;;;-145.69;73.33;52313.69;5115731;28;20233;-83
2023/11/11 05:10:33;;;;;;;6.97;2.43;;;;;;;-145.69;72.40;52321.59;5117366;28;20247;-83
2023/11/11 05:13:01;;;;;;;5.47;2.00;;;;;;;-145.69;72.55;52305.75;5116294;28;20702;-83
2023/11/11 05:15:30;;;;;;;5.17;2.53;;;;;;;-145.69;72.02;52297.84;5116175;28;20246;-82
2023/11/11 05:17:57;;;;;;;3.43;2.17;;;;;;;-145.69;71.95;52266.16;5118228;28;20286;-83
2023/11/11 05:20:23;;;;;;;4.03;1.70;;;;;;;-145.69;71.84;52272.09;5117843;28;20656;-83
2023/11/11 05:22:50;;;;;;;12.43;3.67;;;;;;;-145.69;71.56;52287.94;5120178;28;20212;-82
2023/11/11 05:25:17;;;;;;;6.50;1.90;;;;;;;-145.69;71.89;52297.84;5119020;28;20208;-84
2023/11/11 05:27:45;;;;;;;3.83;2.10;;;;;;;-145.69;71.47;52309.72;5118683;28;20258;-83
2023/11/11 05:30:12;;;;;;;2.67;2.00;;;;;;;-145.69;71.22;52305.75;5115121;28;20207;-84
2023/11/11 05:32:40;;;;;;;1.67;1.40;;;;;;;-145.69;70.36;52258.22;5117568;28;20224;-84
2023/11/11 05:35:08;;;;;;;7.80;1.83;;;;;;;-145.69;70.69;52266.16;5117142;28;20607;-84
2023/11/11 05:37:34;;;;;;;4.67;1.80;;;;;;;-145.69;70.18;52329.53;5115650;28;20204;-83
2023/11/11 05:40:01;;;;;;;6.20;1.90;;;;;;;-145.69;70.17;52317.66;5121689;28;20205;-83
2023/11/11 05:42:27;;;;;;;5.67;1.87;;;;;;;-145.69;69.43;52293.88;5122169;28;20201;-83
2023/11/11 05:44:54;;;;;;;3.67;1.63;;;;;;;-145.69;69.71;52301.81;5122490;28;20279;-83
2023/11/11 05:47:21;;;;;;;7.13;1.70;;;;;;;-145.69;69.69;52309.72;5121666;28;20193;-83
2023/11/11 05:49:49;;;;;;;2.57;1.60;;;;;;;-145.69;69.80;52301.81;5120672;28;20204;-82
2023/11/11 05:52:15;;;;;;;3.07;1.37;;;;;;;-145.69;69.70;52317.66;5124575;28;20229;-83
2023/11/11 05:54:42;;;;;;;5.70;1.73;;;;;;;-145.69;69.81;52293.88;5121895;28;20202;-83
2023/11/11 05:57:08;;;;;;;3.67;1.83;;;;;;;-145.69;69.58;52278.03;5120674;28;20208;-84
2023/11/11 05:59:35;;;;;;;6.27;1.70;;;;;;;-145.69;70.28;52270.13;5121902;28;20606;-84
2023/11/11 06:02:04;;;;;;;6.43;1.90;;;;;;;-145.69;70.16;52289.91;5122958;28;20265;-83
2023/11/11 06:04:30;;;;;;;4.37;1.77;;;;;;;-145.69;69.76;52266.16;5121360;28;20208;-83
2023/11/11 06:07:01;;;;;;;4.10;2.00;;;;;;;-145.69;69.93;52321.59;5114056;28;20229;-84
2023/11/11 06:09:27;;;;;;;1.67;1.50;;;;;;;-145.69;69.98;52309.72;5115543;28;20193;-84
2023/11/11 06:11:55;;;;;;;3.63;1.63;;;;;;;-145.69;69.01;52317.66;5116924;28;20225;-83
2023/11/11 06:14:22;;;;;;;4.50;1.97;;;;;;;-145.69;69.22;52321.59;5123275;28;20246;-83
2023/11/11 06:16:49;;;;;;;2.47;1.67;;;;;;;-145.69;69.26;52305.75;5124999;28;20244;-83
2023/11/11 06:19:17;;;;;;;3.73;1.83;;;;;;;-145.69;69.46;52329.53;5122958;28;20205;-83
2023/11/11 06:21:44;;;;;;;2.43;1.93;;;;;;;-145.69;68.99;52333.47;5125336;28;20526;-83
2023/11/11 06:24:12;;;;;;;5.68;2.10;;;;;;;-145.69;69.98;52305.75;5121349;28;20549;-83
2023/11/11 06:26:39;;;;;;;5.53;1.70;;;;;;;-145.69;69.60;52301.81;5123073;28;20197;-83
2023/11/11 06:29:06;;;;;;;4.30;1.90;;;;;;;-145.69;69.76;52309.72;5125271;28;20206;-83
2023/11/11 06:31:33;;;;;;;5.47;1.67;;;;;;;-145.69;69.54;52323.59;5126371;28;20708;-83
2023/11/11 06:34:00;;;;;;;4.93;2.00;;;;;;;-145.69;70.28;52335.47;5126416;28;20652;-84
2023/11/11 06:36:26;;;;;;;3.83;1.70;;;;;;;-145.69;69.79;52319.63;5124190;28;20291;-83
2023/11/11 06:38:53;;;;;;;5.97;1.73;;;;;;;-145.69;70.23;52341.41;5123328;28;20207;-83
2023/11/11 06:41:22;;;;;;;3.87;1.70;;;;;;;-145.69;70.13;52297.84;5124973;28;20292;-83
2023/11/11 06:43:49;;;;;;;3.63;2.00;;;;;;;-145.69;70.00;52327.53;5103744;28;20220;-83
2023/11/11 06:46:15;;;;;;;2.87;2.00;;;;;;;-145.69;70.05;52309.72;5098604;28;20209;-83
2023/11/11 06:48:42;;;;;;;5.43;2.10;;;;;;;-145.69;70.08;52341.41;5097878;28;20226;-84
2023/11/11 06:51:09;;;;;;;3.40;2.13;;;;;;;-145.69;69.97;52311.69;5096288;28;20194;-82
2023/11/11 06:53:35;;;;;;;5.23;2.00;;;;;;;-145.69;70.14;52325.56;5096668;28;20198;-83
2023/11/11 06:56:03;;;;;;;4.93;2.10;;;;;;;-145.69;69.85;52325.56;5114520;28;20225;-82
2023/11/11 06:58:31;;;;;;;2.97;1.60;;;;;;;-145.69;70.41;52301.81;5116611;28;20205;-82
2023/11/11 07:00:58;;;;;;;2.60;1.73;;;;;;;-145.69;69.89;52276.06;5113340;28;20219;-82
2023/11/11 07:03:25;;;;;;;7.93;2.57;;;;;;;-145.69;70.09;52301.81;5114687;28;20665;-82
2023/11/11 07:05:51;;;;;;;3.80;2.77;;;;;;;-145.69;70.44;52327.53;5119466;28;20204;-83
2023/11/11 07:08:18;;;;;;;6.20;2.83;;;;;;;-145.69;70.57;52305.75;5122452;28;20194;-83
2023/11/11 07:10:45;;;;;;;8.47;3.03;;;;;;;-145.69;70.60;52353.28;5121299;28;20237;-83
2023/11/11 07:13:12;;;;;;;7.30;2.70;;;;;;;-145.69;70.62;52309.72;5120423;28;20312;-83
2023/11/11 07:15:41;;;;;;;4.23;3.00;;;;;;;-145.69;70.68;52301.81;5120851;28;20204;-83
2023/11/11 07:18:08;;;;;;;4.20;2.53;;;;;;;-145.69;70.43;52305.75;5121448;27;20289;-83
2023/11/11 07:20:35;;;;;;;6.80;2.83;;;;;;;-145.69;70.50;52353.28;5122704;28;20261;-82
2023/11/11 07:23:01;;;;;;;7.50;2.47;;;;;;;-145.69;70.96;52345.38;5122916;28;20627;-83
2023/11/11 07:25:28;;;;;;;3.27;2.30;;;;;;;-145.69;70.42;52345.38;5123768;28;20194;-83
2023/11/11 07:27:55;;;;;;;2.90;2.27;;;;;;;-145.69;70.39;52307.75;5126036;28;20231;-83
2023/11/11 07:30:21;;;;;;;8.23;2.33;;;;;;;-145.69;70.25;52337.44;5106865;28;20228;-84
2023/11/11 07:32:50;;;;;;;5.00;2.10;;;;;;;-145.69;70.59;52293.88;5100787;28;20286;-83
2023/11/11 07:35:17;;;;;;;4.60;2.23;;;;;;;-145.69;70.74;52305.75;5099167;28;20194;-82
2023/11/11 07:37:46;;;;;;;4.73;2.30;;;;;;;-145.69;70.68;52317.66;5101011;28;20205;-83
2023/11/11 07:40:14;;;;;;;5.60;2.33;;;;;;;-145.69;70.16;52317.66;5103818;28;20228;-83
2023/11/11 07:42:44;;;;;;;3.80;2.00;;;;;;;-145.69;69.98;52293.88;5117675;28;20225;-84
2023/11/11 07:45:11;;;;;;;7.00;2.10;;;;;;;-145.69;69.85;52345.38;5127162;28;20201;-84
2023/11/11 07:47:38;;;;;;;7.13;2.20;;;;;;;-145.69;69.71;52283.97;5127888;28;20198;-83
2023/11/11 07:50:09;;;;;;;5.17;3.10;;;;;;;-145.69;68.86;52291.91;5125709;28;20233;-83
2023/11/11 07:52:36;;;;;;;4.53;2.07;;;;;;;-145.69;69.12;52325.56;5124910;28;20236;-83
2023/11/11 07:55:02;;;;;;;10.23;2.00;;;;;;;-145.69;70.10;52331.50;5126037;28;20194;-83
2023/11/11 07:57:29;;;;;;;4.23;2.10;;;;;;;-145.69;69.56;52297.84;5123899;28;20197;-83
2023/11/11 07:59:56;;;;;;;4.97;2.10;;;;;;;-145.69;68.92;52287.94;5123972;28;20212;-83
2023/11/11 08:02:24;;;;;;;6.60;2.00;;;;;;;-145.69;69.07;52305.75;5124816;28;20201;-83
2023/11/11 08:04:51;;;;;;;7.23;2.30;;;;;;;-145.69;69.12;52293.88;5124270;28;20201;-82
2023/11/11 08:07:20;;;;;;;5.03;2.10;;;;;;;-145.69;69.61;52339.44;5125224;28;20576;-83
2023/11/11 08:09:47;;;;;;;4.43;2.13;;;;;;;-145.69;68.85;52303.78;5125026;28;20270;-82
2023/11/11 08:12:13;;;;;;;5.03;1.87;;;;;;;-145.69;69.25;52301.81;5123096;28;20214;-83
2023/11/11 08:14:40;;;;;;;3.87;2.00;;;;;;;-145.69;69.44;52291.91;5126461;28;20197;-83
2023/11/11 08:17:07;;;;;;;4.57;2.03;;;;;;;-145.69;68.55;52280.00;5125452;28;20202;-82
2023/11/11 08:19:34;;;;;;;5.63;2.50;;;;;;;-145.69;69.70;52303.78;5125934;28;20205;-82
2023/11/11 08:22:00;;;;;;;5.03;2.20;;;;;;;-145.69;68.93;52285.97;5126631;28;20200;-83
2023/11/11 08:24:28;;;;;;;9.13;2.37;;;;;;;-145.69;69.44;52285.97;5127761;28;20210;-82
2023/11/11 08:26:56;;;;;;;7.00;1.83;;;;;;;-145.69;69.59;52266.16;5124979;28;20200;-83
2023/11/11 08:29:25;;;;;;;5.37;2.23;;;;;;;-145.69;69.74;52297.84;5127248;28;20193;-83
2023/11/11 08:31:51;;;;;;;4.30;1.90;;;;;;;-145.69;70.05;52301.81;5128031;28;20209;-83
2023/11/11 08:34:19;;;;;;;3.77;1.90;;;;;;;-145.69;67.71;52256.25;5125751;28;20198;-82
2023/11/11 08:36:45;;;;;;;2.07;1.77;;;;;;;-145.69;67.00;52248.34;5123971;28;20201;-82
2023/11/11 08:39:12;;;;;;;3.37;1.70;;;;;;;-145.69;64.93;52270.13;5125748;28;20265;-82
2023/11/11 08:41:40;;;;;;;3.10;2.23;;;;;;;-145.69;66.48;52264.16;5117098;28;20288;-82
2023/11/11 08:44:07;;;;;;;2.33;1.80;;;;;;;-145.69;64.08;52270.13;5115395;28;20212;-82
2023/11/11 08:46:33;;;;;;;3.53;1.80;;;;;;;-145.69;63.21;52297.84;5115366;28;20382;-83
2023/11/11 08:49:00;;;;;;;2.37;1.50;;;;;;;-145.69;63.81;52305.75;5115120;28;20280;-82
2023/11/11 08:51:26;;;;;;;1.60;1.33;;;;;;;-145.69;62.69;52210.72;5115010;28;20635;-82
2023/11/11 08:53:53;;;;;;;1.97;1.53;;;;;;;-145.69;64.34;52256.25;5114655;28;20221;-82
2023/11/11 08:56:19;;;;;;;5.90;1.80;;;;;;;-145.69;63.65;52278.03;5115399;28;20666;-82
2023/11/11 08:58:47;;;;;;;26.63;1.83;;;;;;;-145.69;63.42;52254.28;5115004;28;20202;-81
2023/11/11 09:01:14;;;;;;;3.03;1.30;;;;;;;-145.69;61.27;52262.19;5114975;28;20206;-82
2023/11/11 09:03:40;;;;;;;4.40;1.27;;;;;;;-145.69;61.96;52254.28;5114737;28;20296;-82
2023/11/11 09:06:09;;;;;;;5.43;1.10;;;;;;;-145.69;60.94;52274.06;5114863;28;20290;-81
2023/11/11 09:08:36;;;;;;;3.17;1.13;;;;;;;-145.69;60.65;52250.31;5114559;28;20197;-81
2023/11/11 09:11:06;;;;;;;6.60;1.10;;;;;;;-145.69;58.81;52274.06;5114802;28;20296;-81
2023/11/11 09:13:33;;;;;;;1.10;1.00;;;;;;;-145.69;60.25;52260.22;5094381;28;20229;-82
2023/11/11 09:16:02;;;;;;;2.20;1.10;;;;;;;-145.69;60.62;52254.28;5094471;28;20718;-80
2023/11/11 09:18:29;;;;;;;4.27;1.20;;;;;;;-145.69;60.56;52270.13;5095030;28;20649;-83
2023/11/11 09:20:59;;;;;;;2.13;1.10;;;;;;;-145.69;60.54;52299.81;5096677;28;20663;-82
2023/11/11 09:23:26;;;;;;;2.07;1.00;;;;;;;-145.69;61.03;52266.16;5113955;28;20189;-82
2023/11/11 09:25:54;;;;;;;1.57;1.00;;;;;;;-145.69;59.93;52285.97;5117808;27;20215;-83
2023/11/11 09:28:20;;;;;;;2.57;1.37;;;;;;;-145.69;60.23;52270.13;5140256;27;20643;-83
2023/11/11 09:30:47;;;;;;;3.80;1.10;;;;;;;-145.69;58.98;52289.91;5136073;27;20197;-83
2023/11/11 09:33:15;;;;;;;2.37;1.43;;;;;;;-145.69;57.86;52268.13;5116723;28;20805;-83
2023/11/11 09:35:42;;;;;;;3.10;1.30;;;;;;;-145.69;59.40;52242.38;5115359;28;20659;-82
2023/11/11 09:38:08;;;;;;;2.57;1.20;;;;;;;-145.69;61.00;52289.91;5114092;28;20201;-82
2023/11/11 09:40:34;;;;;;;1.60;1.07;;;;;;;-145.69;61.21;52246.34;5114035;28;20212;-82
2023/11/11 09:43:01;;;;;;;3.80;1.33;;;;;;;-145.69;59.14;52260.22;5113640;28;20288;-82
2023/11/11 09:45:28;;;;;;;3.30;1.10;;;;;;;-145.69;59.24;52289.91;5113932;28;20201;-82
2023/11/11 09:48:00;;;;;;;1.40;1.30;;;;;;;-145.69;58.72;52264.16;5104603;28;20288;-82
2023/11/11 09:50:29;;;;;;;5.33;1.33;;;;;;;-145.69;58.66;52280.00;5113819;28;20676;-81
2023/11/11 09:52:57;;;;;;;3.93;1.30;;;;;;;-145.69;59.46;52242.38;5113662;28;20247;-81
2023/11/11 09:55:24;;;;;;;1.90;1.00;;;;;;;-145.69;57.21;52226.53;5113732;28;20198;-82
2023/11/11 09:57:52;;;;;;;3.27;1.50;;;;;;;-145.69;58.81;52270.13;5113261;28;20292;-81
2023/11/11 10:00:19;;;;;;;1.13;0.83;;;;;;;-145.69;58.31;52226.53;5113873;28;20200;-81
2023/11/11 10:02:45;;;;;;;1.97;1.03;;;;;;;-145.69;58.15;52282.00;5113488;28;20201;-81
2023/11/11 10:05:12;;;;;;;3.57;1.07;;;;;;;-145.69;56.20;52246.34;5116381;28;20208;-82
2023/11/11 10:07:40;;;;;;;2.27;0.90;;;;;;;-145.69;56.57;52250.31;5113014;28;20588;-82
2023/11/11 10:10:09;;;;;;;4.27;1.13;;;;;;;-145.69;56.79;52250.31;5113358;28;20281;-81
2023/11/11 10:12:39;;;;;;;1.30;0.90;;;;;;;-145.69;55.27;52262.19;5113130;28;20218;-82
2023/11/11 10:15:07;;;;;;;1.70;0.80;;;;;;;-145.69;55.82;52252.28;5113812;28;20206;-82
2023/11/11 10:17:38;;;;;;;1.13;0.80;;;;;;;-145.69;55.46;52246.34;5113529;28;20194;-82
2023/11/11 10:20:10;;;;;;;1.53;0.97;;;;;;;-145.69;52.93;52226.53;5114377;28;20217;-82
2023/11/11 10:22:41;;;;;;;3.47;1.07;;;;;;;-145.69;53.09;52218.63;5115340;28;20205;-82
2023/11/11 10:25:10;;;;;;;2.83;1.57;;;;;;;-145.69;52.83;52218.63;5119412;28;20185;-82
2023/11/11 10:27:38;;;;;;;1.97;0.97;;;;;;;-145.69;53.58;52226.53;5118025;28;20193;-82
2023/11/11 10:30:16;;;;;;;1.77;0.83;;;;;;;-145.69;52.13;52220.59;5114080;28;20928;-83
2023/11/11 10:32:48;;;;;;;1.20;0.80;;;;;;;-145.69;48.11;52266.16;5113662;28;20225;-82
2023/11/11 10:35:15;;;;;;;1.57;0.87;;;;;;;-145.69;48.30;52278.03;5115047;28;20208;-82
2023/11/11 10:37:41;;;;;;;3.80;0.70;;;;;;;-145.69;46.46;52268.13;5113579;28;20200;-81
2023/11/11 10:40:10;;;;;;;2.53;0.83;;;;;;;-145.69;47.50;52222.59;5112662;28;20201;-80
2023/11/11 10:42:37;;;;;;;1.93;0.90;;;;;;;-145.69;45.52;52202.78;5112692;28;20189;-80
2023/11/11 10:45:04;;;;;;;2.83;1.07;;;;;;;-145.69;47.12;52266.16;5112459;28;20656;-80
2023/11/11 10:47:34;;;;;;;2.30;0.80;;;;;;;-145.69;45.93;52238.44;5112843;28;20280;-81
2023/11/11 10:50:01;;;;;;;0.67;0.60;;;;;;;-145.69;46.22;52242.38;5113257;28;20284;-81
2023/11/11 10:52:30;;;;;;;1.23;1.00;;;;;;;-145.69;45.94;52214.66;5112967;28;20197;-80
2023/11/11 10:54:59;;;;;;;1.73;1.10;;;;;;;-145.69;45.70;52256.25;5112460;28;20209;-81
2023/11/11 10:57:30;;;;;;;3.50;1.00;;;;;;;-145.69;46.55;52214.66;5113076;28;20205;-80
2023/11/11 10:59:56;;;;;;;2.67;0.80;;;;;;;-145.69;45.52;52226.53;5112886;28;20262;-81
2023/11/11 11:02:24;;;;;;;2.77;1.03;;;;;;;-145.69;44.36;52204.75;5112525;28;20446;-81
2023/11/11 11:04:55;;;;;;;2.37;0.90;;;;;;;-145.69;44.75;52246.34;5113159;28;20209;-80
2023/11/11 11:07:26;;;;;;;5.33;1.13;;;;;;;-145.69;43.97;52230.50;5113758;28;20235;-81
2023/11/11 11:10:01;;;;;;;3.80;1.63;;;;;;;-145.69;43.49;52202.78;5113417;28;20204;-81
2023/11/11 11:12:36;;;;;;;2.50;1.00;;;;;;;-145.69;43.34;52218.63;5112719;28;20189;-79
2023/11/11 11:15:06;;;;;;;2.93;1.00;;;;;;;-145.69;44.42;52206.75;5112965;28;20205;-78
2023/11/11 11:17:38;;;;;;;2.60;0.90;;;;;;;-145.69;44.65;52232.50;5112937;28;20206;-79